sensor_id;sensor_type;location;lat;lon;timestamp;temperature;humidity
66086;DHT22;52868;49.758;9.586;2022-08-26T00:01:16;24.70;60.00
66086;DHT22;52868;49.758;9.586;2022-08-26T00:03:43;24.70;59.80
66086;DHT22;52868;49.758;9.586;2022-08-26T00:06:09;24.70;59.70
66086;DHT22;52868;49.758;9.586;2022-08-26T00:08:35;24.60;59.80
66086;DHT22;52868;49.758;9.586;2022-08-26T00:11:01;24.60;59.90
66086;DHT22;52868;49.758;9.586;2022-08-26T00:13:27;24.60;60.00
66086;DHT22;52868;49.758;9.586;2022-08-26T00:15:52;24.60;59.80
66086;DHT22;52868;49.758;9.586;2022-08-26T00:18:19;24.70;59.60
66086;DHT22;52868;49.758;9.586;2022-08-26T00:20:45;24.70;59.70
66086;DHT22;52868;49.758;9.586;2022-08-26T00:23:10;24.60;59.70
66086;DHT22;52868;49.758;9.586;2022-08-26T00:25:37;24.60;60.00
66086;DHT22;52868;49.758;9.586;2022-08-26T00:28:04;24.50;60.20
66086;DHT22;52868;49.758;9.586;2022-08-26T00:30:30;24.40;60.20
66086;DHT22;52868;49.758;9.586;2022-08-26T00:32:57;24.50;60.10
66086;DHT22;52868;49.758;9.586;2022-08-26T00:35:23;24.50;60.20
66086;DHT22;52868;49.758;9.586;2022-08-26T00:37:50;24.30;60.40
66086;DHT22;52868;49.758;9.586;2022-08-26T00:40:25;24.30;60.40
66086;DHT22;52868;49.758;9.586;2022-08-26T00:42:51;24.40;60.30
66086;DHT22;52868;49.758;9.586;2022-08-26T00:45:17;24.30;60.50
66086;DHT22;52868;49.758;9.586;2022-08-26T00:47:49;24.30;60.20
66086;DHT22;52868;49.758;9.586;2022-08-26T00:50:22;24.30;60.10
66086;DHT22;52868;49.758;9.586;2022-08-26T00:52:49;24.30;60.30
66086;DHT22;52868;49.758;9.586;2022-08-26T00:55:18;24.20;60.60
66086;DHT22;52868;49.758;9.586;2022-08-26T00:57:48;24.20;60.70
66086;DHT22;52868;49.758;9.586;2022-08-26T01:00:21;24.30;60.30
66086;DHT22;52868;49.758;9.586;2022-08-26T01:02:48;24.20;60.60
66086;DHT22;52868;49.758;9.586;2022-08-26T01:05:14;24.20;60.60
66086;DHT22;52868;49.758;9.586;2022-08-26T01:07:41;24.20;60.50
66086;DHT22;52868;49.758;9.586;2022-08-26T01:10:10;24.10;60.70
66086;DHT22;52868;49.758;9.586;2022-08-26T01:12:41;24.00;61.00
66086;DHT22;52868;49.758;9.586;2022-08-26T01:15:12;23.90;61.10
66086;DHT22;52868;49.758;9.586;2022-08-26T01:17:40;23.90;61.20
66086;DHT22;52868;49.758;9.586;2022-08-26T01:20:26;24.00;60.80
66086;DHT22;52868;49.758;9.586;2022-08-26T01:23:04;24.00;60.70
66086;DHT22;52868;49.758;9.586;2022-08-26T01:25:31;24.00;60.60
66086;DHT22;52868;49.758;9.586;2022-08-26T01:28:00;24.00;60.80
66086;DHT22;52868;49.758;9.586;2022-08-26T01:30:27;23.90;60.90
66086;DHT22;52868;49.758;9.586;2022-08-26T01:32:58;23.80;61.00
66086;DHT22;52868;49.758;9.586;2022-08-26T01:35:26;23.80;61.30
66086;DHT22;52868;49.758;9.586;2022-08-26T01:37:53;23.80;61.10
66086;DHT22;52868;49.758;9.586;2022-08-26T01:40:25;23.80;61.30
66086;DHT22;52868;49.758;9.586;2022-08-26T01:42:52;23.80;61.30
66086;DHT22;52868;49.758;9.586;2022-08-26T01:45:22;23.70;61.40
66086;DHT22;52868;49.758;9.586;2022-08-26T01:47:50;23.80;61.00
66086;DHT22;52868;49.758;9.586;2022-08-26T01:50:21;23.70;61.00
66086;DHT22;52868;49.758;9.586;2022-08-26T01:52:48;23.70;61.40
66086;DHT22;52868;49.758;9.586;2022-08-26T01:55:16;23.60;61.50
66086;DHT22;52868;49.758;9.586;2022-08-26T01:57:45;23.60;61.50
66086;DHT22;52868;49.758;9.586;2022-08-26T02:00:12;23.60;61.50
66086;DHT22;52868;49.758;9.586;2022-08-26T02:02:43;23.70;61.40
66086;DHT22;52868;49.758;9.586;2022-08-26T02:05:14;23.60;61.60
66086;DHT22;52868;49.758;9.586;2022-08-26T02:07:40;23.50;61.70
66086;DHT22;52868;49.758;9.586;2022-08-26T02:10:09;23.50;61.90
66086;DHT22;52868;49.758;9.586;2022-08-26T02:12:35;23.50;62.00
66086;DHT22;52868;49.758;9.586;2022-08-26T02:15:05;23.50;61.50
66086;DHT22;52868;49.758;9.586;2022-08-26T02:17:37;23.50;61.60
66086;DHT22;52868;49.758;9.586;2022-08-26T02:20:04;23.50;61.70
66086;DHT22;52868;49.758;9.586;2022-08-26T02:22:30;23.60;61.70
66086;DHT22;52868;49.758;9.586;2022-08-26T02:25:04;23.50;61.70
66086;DHT22;52868;49.758;9.586;2022-08-26T02:27:32;23.60;61.60
66086;DHT22;52868;49.758;9.586;2022-08-26T02:30:21;23.50;61.90
66086;DHT22;52868;49.758;9.586;2022-08-26T02:32:47;23.50;62.20
66086;DHT22;52868;49.758;9.586;2022-08-26T02:35:14;23.40;62.10
66086;DHT22;52868;49.758;9.586;2022-08-26T02:37:41;23.40;62.00
66086;DHT22;52868;49.758;9.586;2022-08-26T02:40:11;23.30;62.40
66086;DHT22;52868;49.758;9.586;2022-08-26T02:42:37;23.40;62.40
66086;DHT22;52868;49.758;9.586;2022-08-26T02:45:03;23.40;62.30
66086;DHT22;52868;49.758;9.586;2022-08-26T02:47:31;23.40;62.20
66086;DHT22;52868;49.758;9.586;2022-08-26T02:49:58;23.40;62.30
66086;DHT22;52868;49.758;9.586;2022-08-26T02:52:24;23.30;62.60
66086;DHT22;52868;49.758;9.586;2022-08-26T02:54:50;23.30;62.50
66086;DHT22;52868;49.758;9.586;2022-08-26T02:57:16;23.30;62.50
66086;DHT22;52868;49.758;9.586;2022-08-26T02:59:42;23.30;62.50
66086;DHT22;52868;49.758;9.586;2022-08-26T03:02:07;23.30;62.60
66086;DHT22;52868;49.758;9.586;2022-08-26T03:04:35;23.30;62.60
66086;DHT22;52868;49.758;9.586;2022-08-26T03:07:01;23.30;62.60
66086;DHT22;52868;49.758;9.586;2022-08-26T03:09:27;23.30;62.80
66086;DHT22;52868;49.758;9.586;2022-08-26T03:11:53;23.30;62.40
66086;DHT22;52868;49.758;9.586;2022-08-26T03:14:20;23.30;62.20
66086;DHT22;52868;49.758;9.586;2022-08-26T03:16:49;23.30;62.00
66086;DHT22;52868;49.758;9.586;2022-08-26T03:19:16;23.30;61.80
66086;DHT22;52868;49.758;9.586;2022-08-26T03:21:43;23.30;61.80
66086;DHT22;52868;49.758;9.586;2022-08-26T03:24:10;23.30;62.00
66086;DHT22;52868;49.758;9.586;2022-08-26T03:26:37;23.30;62.10
66086;DHT22;52868;49.758;9.586;2022-08-26T03:29:04;23.20;62.40
66086;DHT22;52868;49.758;9.586;2022-08-26T03:31:48;23.10;62.60
66086;DHT22;52868;49.758;9.586;2022-08-26T03:34:14;23.00;62.80
66086;DHT22;52868;49.758;9.586;2022-08-26T03:36:40;23.00;62.90
66086;DHT22;52868;49.758;9.586;2022-08-26T03:39:06;23.00;62.90
66086;DHT22;52868;49.758;9.586;2022-08-26T03:41:33;23.00;62.80
66086;DHT22;52868;49.758;9.586;2022-08-26T03:43:59;23.10;62.80
66086;DHT22;52868;49.758;9.586;2022-08-26T03:46:25;23.10;62.80
66086;DHT22;52868;49.758;9.586;2022-08-26T03:48:51;23.00;63.10
66086;DHT22;52868;49.758;9.586;2022-08-26T03:51:18;23.00;63.10
66086;DHT22;52868;49.758;9.586;2022-08-26T03:53:45;23.00;63.10
66086;DHT22;52868;49.758;9.586;2022-08-26T03:56:11;23.00;63.10
66086;DHT22;52868;49.758;9.586;2022-08-26T03:58:37;22.90;63.30
66086;DHT22;52868;49.758;9.586;2022-08-26T04:01:04;22.80;63.50
66086;DHT22;52868;49.758;9.586;2022-08-26T04:03:29;22.80;63.60
66086;DHT22;52868;49.758;9.586;2022-08-26T04:06:13;22.90;63.00
66086;DHT22;52868;49.758;9.586;2022-08-26T04:08:39;22.90;62.50
66086;DHT22;52868;49.758;9.586;2022-08-26T04:11:05;22.90;62.60
66086;DHT22;52868;49.758;9.586;2022-08-26T04:13:33;22.90;62.80
66086;DHT22;52868;49.758;9.586;2022-08-26T04:15:59;22.90;62.90
66086;DHT22;52868;49.758;9.586;2022-08-26T04:18:25;22.80;63.00
66086;DHT22;52868;49.758;9.586;2022-08-26T04:20:52;22.80;63.30
66086;DHT22;52868;49.758;9.586;2022-08-26T04:23:18;22.80;63.70
66086;DHT22;52868;49.758;9.586;2022-08-26T04:25:44;22.80;63.50
66086;DHT22;52868;49.758;9.586;2022-08-26T04:28:09;22.70;63.70
66086;DHT22;52868;49.758;9.586;2022-08-26T04:30:36;22.70;63.70
66086;DHT22;52868;49.758;9.586;2022-08-26T04:33:02;22.60;63.90
66086;DHT22;52868;49.758;9.586;2022-08-26T04:35:29;22.60;63.90
66086;DHT22;52868;49.758;9.586;2022-08-26T04:37:55;22.70;63.60
66086;DHT22;52868;49.758;9.586;2022-08-26T04:40:21;22.80;63.00
66086;DHT22;52868;49.758;9.586;2022-08-26T04:42:47;22.70;63.10
66086;DHT22;52868;49.758;9.586;2022-08-26T04:45:13;22.60;63.40
66086;DHT22;52868;49.758;9.586;2022-08-26T04:47:39;22.60;63.60
66086;DHT22;52868;49.758;9.586;2022-08-26T04:50:06;22.60;63.70
66086;DHT22;52868;49.758;9.586;2022-08-26T04:52:32;22.60;63.80
66086;DHT22;52868;49.758;9.586;2022-08-26T04:54:58;22.60;63.60
66086;DHT22;52868;49.758;9.586;2022-08-26T04:57:24;22.60;63.50
66086;DHT22;52868;49.758;9.586;2022-08-26T04:59:49;22.50;63.80
66086;DHT22;52868;49.758;9.586;2022-08-26T05:02:15;22.60;64.00
66086;DHT22;52868;49.758;9.586;2022-08-26T05:04:41;22.50;64.10
66086;DHT22;52868;49.758;9.586;2022-08-26T05:07:08;22.50;64.30
66086;DHT22;52868;49.758;9.586;2022-08-26T05:09:37;22.50;64.50
66086;DHT22;52868;49.758;9.586;2022-08-26T05:12:03;22.60;63.90
66086;DHT22;52868;49.758;9.586;2022-08-26T05:14:32;22.60;64.00
66086;DHT22;52868;49.758;9.586;2022-08-26T05:16:57;22.60;64.10
66086;DHT22;52868;49.758;9.586;2022-08-26T05:19:23;22.60;64.10
66086;DHT22;52868;49.758;9.586;2022-08-26T05:21:49;22.60;64.50
66086;DHT22;52868;49.758;9.586;2022-08-26T05:24:16;22.60;64.50
66086;DHT22;52868;49.758;9.586;2022-08-26T05:26:42;22.60;64.70
66086;DHT22;52868;49.758;9.586;2022-08-26T05:29:08;22.50;64.70
66086;DHT22;52868;49.758;9.586;2022-08-26T05:31:34;22.60;64.80
66086;DHT22;52868;49.758;9.586;2022-08-26T05:34:01;22.60;64.10
66086;DHT22;52868;49.758;9.586;2022-08-26T05:36:30;22.80;63.90
66086;DHT22;52868;49.758;9.586;2022-08-26T05:38:56;22.70;64.20
66086;DHT22;52868;49.758;9.586;2022-08-26T05:41:25;22.80;64.10
66086;DHT22;52868;49.758;9.586;2022-08-26T05:43:54;22.70;64.20
66086;DHT22;52868;49.758;9.586;2022-08-26T05:46:20;22.80;64.10
66086;DHT22;52868;49.758;9.586;2022-08-26T05:48:46;22.80;63.90
66086;DHT22;52868;49.758;9.586;2022-08-26T05:51:12;22.80;63.90
66086;DHT22;52868;49.758;9.586;2022-08-26T05:53:39;22.80;64.10
66086;DHT22;52868;49.758;9.586;2022-08-26T05:56:06;22.80;64.40
66086;DHT22;52868;49.758;9.586;2022-08-26T05:58:33;22.80;64.50
66086;DHT22;52868;49.758;9.586;2022-08-26T06:01:06;22.80;64.50
66086;DHT22;52868;49.758;9.586;2022-08-26T06:03:35;22.80;64.70
66086;DHT22;52868;49.758;9.586;2022-08-26T06:06:07;22.80;64.60
66086;DHT22;52868;49.758;9.586;2022-08-26T06:08:34;22.90;64.20
66086;DHT22;52868;49.758;9.586;2022-08-26T06:11:02;22.90;64.50
66086;DHT22;52868;49.758;9.586;2022-08-26T06:13:29;23.00;64.70
66086;DHT22;52868;49.758;9.586;2022-08-26T06:15:56;23.00;64.60
66086;DHT22;52868;49.758;9.586;2022-08-26T06:18:29;22.90;64.60
66086;DHT22;52868;49.758;9.586;2022-08-26T06:20:57;23.00;64.60
66086;DHT22;52868;49.758;9.586;2022-08-26T06:23:25;23.10;64.70
66086;DHT22;52868;49.758;9.586;2022-08-26T06:26:10;23.10;64.60
66086;DHT22;52868;49.758;9.586;2022-08-26T06:28:36;23.20;64.10
66086;DHT22;52868;49.758;9.586;2022-08-26T06:31:02;23.30;64.30
66086;DHT22;52868;49.758;9.586;2022-08-26T06:33:28;23.30;64.50
66086;DHT22;52868;49.758;9.586;2022-08-26T06:35:55;23.30;64.60
66086;DHT22;52868;49.758;9.586;2022-08-26T06:38:21;23.30;64.60
66086;DHT22;52868;49.758;9.586;2022-08-26T06:40:49;23.30;64.50
66086;DHT22;52868;49.758;9.586;2022-08-26T06:43:17;23.40;64.30
66086;DHT22;52868;49.758;9.586;2022-08-26T06:45:44;23.40;64.20
66086;DHT22;52868;49.758;9.586;2022-08-26T06:48:11;23.50;64.20
66086;DHT22;52868;49.758;9.586;2022-08-26T06:50:37;23.50;64.20
66086;DHT22;52868;49.758;9.586;2022-08-26T06:53:03;23.50;64.20
66086;DHT22;52868;49.758;9.586;2022-08-26T06:55:29;23.60;64.10
66086;DHT22;52868;49.758;9.586;2022-08-26T06:57:55;23.60;64.20
66086;DHT22;52868;49.758;9.586;2022-08-26T07:00:21;23.70;64.00
66086;DHT22;52868;49.758;9.586;2022-08-26T07:02:47;23.70;64.00
66086;DHT22;52868;49.758;9.586;2022-08-26T07:07:43;23.80;63.80
66086;DHT22;52868;49.758;9.586;2022-08-26T07:10:09;23.80;63.80
66086;DHT22;52868;49.758;9.586;2022-08-26T07:12:35;23.80;63.80
66086;DHT22;52868;49.758;9.586;2022-08-26T07:15:01;23.90;63.80
66086;DHT22;52868;49.758;9.586;2022-08-26T07:17:27;23.90;63.80
66086;DHT22;52868;49.758;9.586;2022-08-26T07:19:53;23.90;63.60
66086;DHT22;52868;49.758;9.586;2022-08-26T07:22:19;24.00;63.60
66086;DHT22;52868;49.758;9.586;2022-08-26T07:24:44;24.10;63.40
66086;DHT22;52868;49.758;9.586;2022-08-26T07:27:13;24.10;63.20
66086;DHT22;52868;49.758;9.586;2022-08-26T07:29:40;24.10;63.20
66086;DHT22;52868;49.758;9.586;2022-08-26T07:32:07;24.10;63.30
66086;DHT22;52868;49.758;9.586;2022-08-26T07:34:36;24.10;63.30
66086;DHT22;52868;49.758;9.586;2022-08-26T07:37:03;24.20;63.30
66086;DHT22;52868;49.758;9.586;2022-08-26T07:39:29;24.20;63.20
66086;DHT22;52868;49.758;9.586;2022-08-26T07:41:55;24.20;63.10
66086;DHT22;52868;49.758;9.586;2022-08-26T07:44:20;24.30;63.00
66086;DHT22;52868;49.758;9.586;2022-08-26T07:46:46;24.30;63.10
66086;DHT22;52868;49.758;9.586;2022-08-26T07:49:12;24.30;62.80
66086;DHT22;52868;49.758;9.586;2022-08-26T07:51:38;24.40;62.50
66086;DHT22;52868;49.758;9.586;2022-08-26T07:54:04;24.40;62.70
66086;DHT22;52868;49.758;9.586;2022-08-26T07:56:30;24.40;62.50
66086;DHT22;52868;49.758;9.586;2022-08-26T07:58:55;24.50;62.40
66086;DHT22;52868;49.758;9.586;2022-08-26T08:01:22;24.50;62.50
66086;DHT22;52868;49.758;9.586;2022-08-26T08:03:49;24.60;62.70
66086;DHT22;52868;49.758;9.586;2022-08-26T08:06:17;24.70;62.30
66086;DHT22;52868;49.758;9.586;2022-08-26T08:08:43;24.80;61.90
66086;DHT22;52868;49.758;9.586;2022-08-26T08:11:09;24.80;62.10
66086;DHT22;52868;49.758;9.586;2022-08-26T08:13:38;24.90;62.00
66086;DHT22;52868;49.758;9.586;2022-08-26T08:16:04;25.00;61.60
66086;DHT22;52868;49.758;9.586;2022-08-26T08:18:30;25.20;61.30
66086;DHT22;52868;49.758;9.586;2022-08-26T08:20:56;25.30;60.90
66086;DHT22;52868;49.758;9.586;2022-08-26T08:23:22;25.40;60.90
66086;DHT22;52868;49.758;9.586;2022-08-26T08:25:48;25.60;60.70
66086;DHT22;52868;49.758;9.586;2022-08-26T08:28:14;25.60;60.50
66086;DHT22;52868;49.758;9.586;2022-08-26T08:30:40;25.70;60.30
66086;DHT22;52868;49.758;9.586;2022-08-26T08:33:07;25.80;60.20
66086;DHT22;52868;49.758;9.586;2022-08-26T08:35:32;25.80;59.80
66086;DHT22;52868;49.758;9.586;2022-08-26T08:37:59;25.90;59.60
66086;DHT22;52868;49.758;9.586;2022-08-26T08:40:26;26.00;59.30
66086;DHT22;52868;49.758;9.586;2022-08-26T08:45:35;26.30;59.10
66086;DHT22;52868;49.758;9.586;2022-08-26T08:53:38;26.50;58.70
66086;DHT22;52868;49.758;9.586;2022-08-26T08:56:26;26.60;58.60
66086;DHT22;52868;49.758;9.586;2022-08-26T08:59:17;26.70;58.70
66086;DHT22;52868;49.758;9.586;2022-08-26T09:06:53;26.90;58.30
66086;DHT22;52868;49.758;9.586;2022-08-26T09:12:02;27.10;57.70
66086;DHT22;52868;49.758;9.586;2022-08-26T09:14:30;27.20;57.60
66086;DHT22;52868;49.758;9.586;2022-08-26T09:19:52;27.30;57.30
66086;DHT22;52868;49.758;9.586;2022-08-26T09:22:33;27.30;57.10
66086;DHT22;52868;49.758;9.586;2022-08-26T09:25:00;27.40;57.10
66086;DHT22;52868;49.758;9.586;2022-08-26T09:27:49;27.50;56.90
66086;DHT22;52868;49.758;9.586;2022-08-26T09:30:20;27.60;56.90
66086;DHT22;52868;49.758;9.586;2022-08-26T09:33:01;27.70;56.70
66086;DHT22;52868;49.758;9.586;2022-08-26T09:35:33;27.70;56.50
66086;DHT22;52868;49.758;9.586;2022-08-26T09:38:00;27.80;56.80
66086;DHT22;52868;49.758;9.586;2022-08-26T09:40:28;27.80;56.70
66086;DHT22;52868;49.758;9.586;2022-08-26T09:43:15;27.90;56.40
66086;DHT22;52868;49.758;9.586;2022-08-26T09:45:45;28.00;56.30
66086;DHT22;52868;49.758;9.586;2022-08-26T09:48:12;28.00;56.20
66086;DHT22;52868;49.758;9.586;2022-08-26T09:50:58;28.00;56.20
66086;DHT22;52868;49.758;9.586;2022-08-26T09:53:27;28.10;56.00
66086;DHT22;52868;49.758;9.586;2022-08-26T09:56:23;28.20;56.00
66086;DHT22;52868;49.758;9.586;2022-08-26T09:58:49;28.20;55.70
66086;DHT22;52868;49.758;9.586;2022-08-26T10:01:34;28.30;55.50
66086;DHT22;52868;49.758;9.586;2022-08-26T10:04:09;28.30;55.20
66086;DHT22;52868;49.758;9.586;2022-08-26T10:06:53;28.40;55.20
66086;DHT22;52868;49.758;9.586;2022-08-26T10:09:19;28.40;55.20
66086;DHT22;52868;49.758;9.586;2022-08-26T10:11:49;28.50;54.70
66086;DHT22;52868;49.758;9.586;2022-08-26T10:14:31;28.40;54.90
66086;DHT22;52868;49.758;9.586;2022-08-26T10:17:06;28.40;54.70
66086;DHT22;52868;49.758;9.586;2022-08-26T10:19:57;28.40;54.80
66086;DHT22;52868;49.758;9.586;2022-08-26T10:25:26;28.70;54.10
66086;DHT22;52868;49.758;9.586;2022-08-26T10:28:07;28.70;53.90
66086;DHT22;52868;49.758;9.586;2022-08-26T10:30:39;28.70;53.90
66086;DHT22;52868;49.758;9.586;2022-08-26T10:33:09;28.70;54.10
66086;DHT22;52868;49.758;9.586;2022-08-26T10:35:43;28.80;53.80
66086;DHT22;52868;49.758;9.586;2022-08-26T10:38:16;28.80;53.70
66086;DHT22;52868;49.758;9.586;2022-08-26T10:46:15;28.80;53.10
66086;DHT22;52868;49.758;9.586;2022-08-26T10:48:55;28.80;53.20
66086;DHT22;52868;49.758;9.586;2022-08-26T10:51:31;28.70;53.20
66086;DHT22;52868;49.758;9.586;2022-08-26T10:54:09;28.80;53.50
66086;DHT22;52868;49.758;9.586;2022-08-26T10:57:08;28.60;53.40
66086;DHT22;52868;49.758;9.586;2022-08-26T11:02:35;28.60;53.30
66086;DHT22;52868;49.758;9.586;2022-08-26T11:05:07;28.60;53.40
66086;DHT22;52868;49.758;9.586;2022-08-26T11:12:45;28.60;53.40
66086;DHT22;52868;49.758;9.586;2022-08-26T11:18:11;28.60;53.50
66086;DHT22;52868;49.758;9.586;2022-08-26T11:20:56;28.50;53.00
66086;DHT22;52868;49.758;9.586;2022-08-26T11:31:07;28.40;53.00
66086;DHT22;52868;49.758;9.586;2022-08-26T11:33:57;28.30;53.20
66086;DHT22;52868;49.758;9.586;2022-08-26T11:36:54;28.30;53.20
66086;DHT22;52868;49.758;9.586;2022-08-26T11:39:45;28.30;53.30
66086;DHT22;52868;49.758;9.586;2022-08-26T11:44:54;28.30;53.90
66086;DHT22;52868;49.758;9.586;2022-08-26T11:47:27;28.20;56.90
66086;DHT22;52868;49.758;9.586;2022-08-26T11:50:16;28.10;59.30
66086;DHT22;52868;49.758;9.586;2022-08-26T11:52:56;28.00;60.00
66086;DHT22;52868;49.758;9.586;2022-08-26T11:55:27;28.00;62.00
66086;DHT22;52868;49.758;9.586;2022-08-26T11:57:55;27.90;65.50
66086;DHT22;52868;49.758;9.586;2022-08-26T12:15:15;27.50;62.00
66086;DHT22;52868;49.758;9.586;2022-08-26T12:18:19;27.50;63.10
66086;DHT22;52868;49.758;9.586;2022-08-26T12:21:20;27.40;64.40
66086;DHT22;52868;49.758;9.586;2022-08-26T12:24:07;27.40;63.90
66086;DHT22;52868;49.758;9.586;2022-08-26T12:30:17;27.40;64.50
66086;DHT22;52868;49.758;9.586;2022-08-26T12:33:10;27.40;64.60
66086;DHT22;52868;49.758;9.586;2022-08-26T12:36:29;27.40;65.30
66086;DHT22;52868;49.758;9.586;2022-08-26T12:39:29;27.40;66.50
66086;DHT22;52868;49.758;9.586;2022-08-26T12:45:04;27.40;65.20
66086;DHT22;52868;49.758;9.586;2022-08-26T12:47:54;27.30;64.10
66086;DHT22;52868;49.758;9.586;2022-08-26T12:50:47;27.40;62.50
66086;DHT22;52868;49.758;9.586;2022-08-26T12:53:39;27.40;62.50
66086;DHT22;52868;49.758;9.586;2022-08-26T12:56:37;27.40;62.40
66086;DHT22;52868;49.758;9.586;2022-08-26T12:59:26;27.50;62.20
66086;DHT22;52868;49.758;9.586;2022-08-26T13:02:37;27.50;62.10
66086;DHT22;52868;49.758;9.586;2022-08-26T13:05:28;27.50;62.00
66086;DHT22;52868;49.758;9.586;2022-08-26T13:08:25;27.60;61.60
66086;DHT22;52868;49.758;9.586;2022-08-26T13:11:23;27.60;61.60
66086;DHT22;52868;49.758;9.586;2022-08-26T13:14:10;27.50;61.70
66086;DHT22;52868;49.758;9.586;2022-08-26T13:16:56;27.60;62.10
66086;DHT22;52868;49.758;9.586;2022-08-26T13:19:42;27.60;61.60
66086;DHT22;52868;49.758;9.586;2022-08-26T13:22:28;27.60;60.90
66086;DHT22;52868;49.758;9.586;2022-08-26T13:25:16;27.60;60.90
66086;DHT22;52868;49.758;9.586;2022-08-26T13:28:02;27.60;60.40
66086;DHT22;52868;49.758;9.586;2022-08-26T13:30:48;27.60;60.40
66086;DHT22;52868;49.758;9.586;2022-08-26T13:33:35;27.60;59.90
66086;DHT22;52868;49.758;9.586;2022-08-26T13:36:21;27.60;60.10
66086;DHT22;52868;49.758;9.586;2022-08-26T13:39:07;27.60;59.90
66086;DHT22;52868;49.758;9.586;2022-08-26T13:41:54;27.70;59.50
66086;DHT22;52868;49.758;9.586;2022-08-26T13:44:40;27.70;59.10
66086;DHT22;52868;49.758;9.586;2022-08-26T13:47:28;27.70;58.90
66086;DHT22;52868;49.758;9.586;2022-08-26T13:50:14;27.70;58.70
66086;DHT22;52868;49.758;9.586;2022-08-26T13:53:00;27.70;58.90
66086;DHT22;52868;49.758;9.586;2022-08-26T13:55:46;27.80;58.80
66086;DHT22;52868;49.758;9.586;2022-08-26T13:58:32;27.70;58.90
66086;DHT22;52868;49.758;9.586;2022-08-26T14:01:18;27.80;59.10
66086;DHT22;52868;49.758;9.586;2022-08-26T14:04:05;27.80;59.00
66086;DHT22;52868;49.758;9.586;2022-08-26T14:06:51;27.70;58.70
66086;DHT22;52868;49.758;9.586;2022-08-26T14:09:37;27.80;58.50
66086;DHT22;52868;49.758;9.586;2022-08-26T14:12:23;27.70;58.00
66086;DHT22;52868;49.758;9.586;2022-08-26T14:15:10;27.80;58.20
66086;DHT22;52868;49.758;9.586;2022-08-26T14:17:56;27.70;57.80
66086;DHT22;52868;49.758;9.586;2022-08-26T14:20:45;27.70;57.50
66086;DHT22;52868;49.758;9.586;2022-08-26T14:23:33;27.70;57.40
66086;DHT22;52868;49.758;9.586;2022-08-26T14:26:19;27.70;56.90
66086;DHT22;52868;49.758;9.586;2022-08-26T14:29:05;27.70;56.80
66086;DHT22;52868;49.758;9.586;2022-08-26T14:31:54;27.70;56.70
66086;DHT22;52868;49.758;9.586;2022-08-26T14:34:42;27.60;56.80
66086;DHT22;52868;49.758;9.586;2022-08-26T14:37:27;27.60;57.20
66086;DHT22;52868;49.758;9.586;2022-08-26T14:40:14;27.70;57.10
66086;DHT22;52868;49.758;9.586;2022-08-26T14:43:04;27.60;57.10
66086;DHT22;52868;49.758;9.586;2022-08-26T14:45:50;27.60;57.10
66086;DHT22;52868;49.758;9.586;2022-08-26T14:48:37;27.60;56.90
66086;DHT22;52868;49.758;9.586;2022-08-26T14:51:23;27.60;56.90
66086;DHT22;52868;49.758;9.586;2022-08-26T14:54:10;27.60;56.50
66086;DHT22;52868;49.758;9.586;2022-08-26T14:57:02;27.60;56.00
66086;DHT22;52868;49.758;9.586;2022-08-26T14:59:48;27.60;55.80
66086;DHT22;52868;49.758;9.586;2022-08-26T15:02:34;27.60;55.90
66086;DHT22;52868;49.758;9.586;2022-08-26T15:05:22;27.60;55.80
66086;DHT22;52868;49.758;9.586;2022-08-26T15:08:08;27.60;56.10
66086;DHT22;52868;49.758;9.586;2022-08-26T15:10:55;27.60;56.00
66086;DHT22;52868;49.758;9.586;2022-08-26T15:13:41;27.50;56.00
66086;DHT22;52868;49.758;9.586;2022-08-26T15:16:27;27.50;56.00
66086;DHT22;52868;49.758;9.586;2022-08-26T15:19:14;27.60;56.10
66086;DHT22;52868;49.758;9.586;2022-08-26T15:22:00;27.50;56.00
66086;DHT22;52868;49.758;9.586;2022-08-26T15:24:26;27.50;56.00
66086;DHT22;52868;49.758;9.586;2022-08-26T15:26:53;27.50;55.90
66086;DHT22;52868;49.758;9.586;2022-08-26T15:29:19;27.50;56.00
66086;DHT22;52868;49.758;9.586;2022-08-26T15:31:46;27.50;56.00
66086;DHT22;52868;49.758;9.586;2022-08-26T15:34:12;27.60;56.10
66086;DHT22;52868;49.758;9.586;2022-08-26T15:36:38;27.60;56.00
66086;DHT22;52868;49.758;9.586;2022-08-26T15:39:05;27.60;56.00
66086;DHT22;52868;49.758;9.586;2022-08-26T15:41:31;27.60;56.10
66086;DHT22;52868;49.758;9.586;2022-08-26T15:43:59;27.60;56.10
66086;DHT22;52868;49.758;9.586;2022-08-26T15:46:26;27.60;56.10
66086;DHT22;52868;49.758;9.586;2022-08-26T15:48:52;27.60;56.10
66086;DHT22;52868;49.758;9.586;2022-08-26T15:51:24;27.70;56.10
66086;DHT22;52868;49.758;9.586;2022-08-26T15:53:50;27.70;56.10
66086;DHT22;52868;49.758;9.586;2022-08-26T15:56:16;27.70;56.00
66086;DHT22;52868;49.758;9.586;2022-08-26T15:58:42;27.70;56.00
66086;DHT22;52868;49.758;9.586;2022-08-26T16:01:08;27.80;55.80
66086;DHT22;52868;49.758;9.586;2022-08-26T16:03:34;27.70;55.90
66086;DHT22;52868;49.758;9.586;2022-08-26T16:06:00;27.80;55.80
66086;DHT22;52868;49.758;9.586;2022-08-26T16:08:27;27.80;55.90
66086;DHT22;52868;49.758;9.586;2022-08-26T16:10:52;27.80;55.80
66086;DHT22;52868;49.758;9.586;2022-08-26T16:13:19;27.80;55.90
66086;DHT22;52868;49.758;9.586;2022-08-26T16:15:45;27.80;55.90
66086;DHT22;52868;49.758;9.586;2022-08-26T16:18:12;27.80;55.80
66086;DHT22;52868;49.758;9.586;2022-08-26T16:20:47;27.80;55.80
66086;DHT22;52868;49.758;9.586;2022-08-26T16:23:13;27.80;55.70
66086;DHT22;52868;49.758;9.586;2022-08-26T16:25:39;27.80;55.20
66086;DHT22;52868;49.758;9.586;2022-08-26T16:28:05;27.80;55.20
66086;DHT22;52868;49.758;9.586;2022-08-26T16:30:30;27.80;55.10
66086;DHT22;52868;49.758;9.586;2022-08-26T16:32:56;27.80;55.00
66086;DHT22;52868;49.758;9.586;2022-08-26T16:35:24;27.80;55.00
66086;DHT22;52868;49.758;9.586;2022-08-26T16:37:50;27.80;55.10
66086;DHT22;52868;49.758;9.586;2022-08-26T16:40:16;27.80;55.00
66086;DHT22;52868;49.758;9.586;2022-08-26T16:42:42;27.80;55.10
66086;DHT22;52868;49.758;9.586;2022-08-26T16:45:08;27.80;55.00
66086;DHT22;52868;49.758;9.586;2022-08-26T16:47:33;27.80;55.40
66086;DHT22;52868;49.758;9.586;2022-08-26T16:49:59;27.80;55.30
66086;DHT22;52868;49.758;9.586;2022-08-26T16:52:25;27.80;55.30
66086;DHT22;52868;49.758;9.586;2022-08-26T16:54:50;27.80;55.10
66086;DHT22;52868;49.758;9.586;2022-08-26T16:57:16;27.80;55.00
66086;DHT22;52868;49.758;9.586;2022-08-26T16:59:42;27.80;55.10
66086;DHT22;52868;49.758;9.586;2022-08-26T17:02:08;27.80;55.20
66086;DHT22;52868;49.758;9.586;2022-08-26T17:04:37;27.70;55.30
66086;DHT22;52868;49.758;9.586;2022-08-26T17:07:03;27.70;55.60
66086;DHT22;52868;49.758;9.586;2022-08-26T17:09:29;27.70;55.90
66086;DHT22;52868;49.758;9.586;2022-08-26T17:11:55;27.70;56.10
66086;DHT22;52868;49.758;9.586;2022-08-26T17:14:21;27.60;56.00